Latest Weather Observations for Fort Denison

IDN60901

Issued at 4:11 pm EDT Tuesday 23 October 2018 (issued every 10 minutes, with the page automatically refreshed every 10 minutes)

About weather observations | Map of Sydney area stations | Latest observations for Sydney area | Other Formats
Station Details ID: 066022 Name: FORT DENISON Lat: -33.86 Lon: 151.23 Height: 5.0 m
Data from the previous 72 hours. | See also: Recent months for locations in New South Wales
Date/Time
EDT
Temp
°C
App
Temp
°C
Dew
Point
°C
Rel
Hum
%
Delta-T
°C
Wind Press
QNH
hPa
Press
MSL
hPa
Rain since
9am
mm
Dir  Spd
km/h
Gust
km/h
Spd
kts
Gust
kts
23/04:00pm - - - - - E 17 24 9 13 - - -
23/03:30pm - - - - - NE 17 28 9 15 - - -
23/03:00pm - - - - - E 17 24 9 13 - - -
23/02:30pm - - - - - E 11 17 6 9 - - -
23/02:00pm - - - - - ENE 15 26 8 14 - - -
23/01:30pm - - - - - ENE 15 22 8 12 - - -
23/01:00pm - - - - - ENE 19 26 10 14 - - -
23/12:30pm - - - - - ENE 17 22 9 12 - - -
23/12:00pm - - - - - ENE 20 28 11 15 - - -
23/11:30am - - - - - E 22 28 12 15 - - -
23/11:00am - - - - - E 20 24 11 13 - - -
23/10:30am - - - - - E 19 20 10 11 - - -
23/10:00am - - - - - ESE 15 17 8 9 - - -
23/09:30am - - - - - E 13 17 7 9 - - -
23/09:00am - - - - - ESE 9 11 5 6 - - -
23/08:30am - - - - - ESE 6 7 3 4 - - -
23/08:00am - - - - - ESE 4 4 2 2 - - -
23/07:30am - - - - - ENE 2 4 1 2 - - -
23/07:00am - - - - - NW 2 4 1 2 - - -
23/06:30am - - - - - NW 4 6 2 3 - - -
23/06:00am - - - - - WNW 6 7 3 4 - - -
23/05:30am - - - - - NW 6 7 3 4 - - -
23/05:00am - - - - - W 11 13 6 7 - - -
23/04:30am - - - - - NNW 4 6 2 3 - - -
23/04:00am - - - - - N 2 4 1 2 - - -
23/03:30am - - - - - CALM 0 2 0 1 - - -
23/03:00am - - - - - ENE 2 4 1 2 - - -
23/02:30am - - - - - NW 2 4 1 2 - - -
23/02:00am - - - - - E 4 6 2 3 - - -
23/01:30am - - - - - E 4 7 2 4 - - -
23/01:00am - - - - - NE 2 4 1 2 - - -
23/12:30am - - - - - N 2 4 1 2 - - -
23/12:00am - - - - - NNE 4 7 2 4 - - -
 
Date/Time
EDT
Temp
°C
App
Temp
°C
Dew
Point
°C
Rel
Hum
%
Delta-T
°C
Wind Press
QNH
hPa
Press
MSL
hPa
Rain since
9am
mm
Dir  Spd
km/h
Gust
km/h
Spd
kts
Gust
kts
22/11:30pm - - - - - NNE 7 11 4 6 - - -
22/11:00pm - - - - - NNE 9 13 5 7 - - -
22/10:30pm - - - - - NNE 2 9 1 5 - - -
22/10:00pm - - - - - NNE 9 20 5 11 - - -
22/09:30pm - - - - - NE 13 26 7 14 - - -
22/09:00pm - - - - - NE 13 26 7 14 - - -
22/08:30pm - - - - - NE 15 26 8 14 - - -
22/08:00pm - - - - - ENE 13 22 7 12 - - -
22/07:30pm - - - - - ENE 15 20 8 11 - - -
22/07:00pm - - - - - ENE 19 28 10 15 - - -
22/06:30pm - - - - - ENE 19 26 10 14 - - -
22/06:00pm - - - - - ENE 20 26 11 14 - - -
22/05:30pm - - - - - ENE 20 30 11 16 - - -
22/05:00pm - - - - - ENE 19 28 10 15 - - -
22/04:30pm - - - - - ENE 20 28 11 15 - - -
22/04:00pm - - - - - ENE 20 32 11 17 - - -
22/03:30pm - - - - - ENE 26 37 14 20 - - -
22/03:00pm - - - - - ENE 26 33 14 18 - - -
22/02:30pm - - - - - ENE 26 33 14 18 - - -
22/02:00pm - - - - - ENE 28 33 15 18 - - -
22/01:30pm - - - - - ENE 24 32 13 17 - - -
22/01:00pm - - - - - E 24 33 13 18 - - -
22/12:30pm - - - - - E 24 32 13 17 - - -
22/12:00pm - - - - - E 22 26 12 14 - - -
22/11:30am - - - - - E 13 17 7 9 - - -
22/11:00am - - - - - ESE 7 13 4 7 - - -
22/10:30am - - - - - S 4 6 2 3 - - -
22/10:00am - - - - - WNW 6 9 3 5 - - -
22/09:30am - - - - - WNW 9 13 5 7 - - -
22/09:00am - - - - - WNW 9 13 5 7 - - -
22/08:30am - - - - - NNW 6 7 3 4 - - -
22/08:00am - - - - - ESE 4 7 2 4 - - -
22/07:30am - - - - - ESE 4 6 2 3 - - -
22/07:00am - - - - - W 4 6 2 3 - - -
22/06:30am - - - - - WNW 9 11 5 6 - - -
22/06:00am - - - - - WNW 6 9 3 5 - - -
22/05:30am - - - - - W 13 15 7 8 - - -
22/05:00am - - - - - W 13 17 7 9 - - -
22/04:30am - - - - - WSW 9 11 5 6 - - -
22/04:00am - - - - - SSW 7 13 4 7 - - -
22/03:30am - - - - - SSW 6 9 3 5 - - -
22/03:00am - - - - - SW 7 9 4 5 - - -
22/02:30am - - - - - SW 6 9 3 5 - - -
22/02:00am - - - - - SW 7 11 4 6 - - -
22/01:30am - - - - - WNW 2 6 1 3 - - -
22/01:00am - - - - - SW 6 11 3 6 - - -
22/12:30am - - - - - NW 6 9 3 5 - - -
22/12:00am - - - - - SW 9 15 5 8 - - -
 
Date/Time
EDT
Temp
°C
App
Temp
°C
Dew
Point
°C
Rel
Hum
%
Delta-T
°C
Wind Press
QNH
hPa
Press
MSL
hPa
Rain since
9am
mm
Dir  Spd
km/h
Gust
km/h
Spd
kts
Gust
kts
21/11:30pm - - - - - SSW 9 15 5 8 - - -
21/11:00pm - - - - - SW 7 13 4 7 - - -
21/10:30pm - - - - - SSW 9 13 5 7 - - -
21/10:00pm - - - - - SSW 7 13 4 7 - - -
21/09:30pm - - - - - SSW 11 17 6 9 - - -
21/09:00pm - - - - - SSW 11 17 6 9 - - -
21/08:30pm - - - - - SSW 11 19 6 10 - - -
21/08:00pm - - - - - S 11 17 6 9 - - -
21/07:30pm - - - - - S 9 17 5 9 - - -
21/07:00pm - - - - - S 11 19 6 10 - - -
21/06:30pm - - - - - SSE 15 22 8 12 - - -
21/06:00pm - - - - - SSE 19 26 10 14 - - -
21/05:30pm - - - - - SSE 19 28 10 15 - - -
21/05:00pm - - - - - SSE 17 28 9 15 - - -
21/04:30pm - - - - - SSE 20 28 11 15 - - -
21/04:00pm - - - - - SE 24 32 13 17 - - -
21/03:30pm - - - - - SSE 22 32 12 17 - - -
21/03:00pm - - - - - SSE 24 35 13 19 - - -
21/02:30pm - - - - - SSE 20 35 11 19 - - -
21/02:00pm - - - - - S 22 33 12 18 - - -
21/01:30pm - - - - - S 17 26 9 14 - - -
21/01:00pm - - - - - S 24 35 13 19 - - -
21/12:30pm - - - - - SSE 20 32 11 17 - - -
21/12:00pm - - - - - SSW 24 35 13 19 - - -
21/11:30am - - - - - S 24 37 13 20 - - -
21/11:00am - - - - - S 24 35 13 19 - - -
21/10:30am - - - - - SSW 24 39 13 21 - - -
21/10:00am - - - - - SSW 24 41 13 22 - - -
21/09:30am - - - - - SSW 20 32 11 17 - - -
21/09:00am - - - - - SSW 24 39 13 21 - - -
21/08:30am - - - - - SSW 26 43 14 23 - - -
21/08:00am - - - - - S 26 43 14 23 - - -
21/07:47am - - - - - S 28 46 15 25 - - -
21/07:30am - - - - - S 26 43 14 23 - - -
21/07:07am - - - - - S 28 46 15 25 - - -
21/07:00am - - - - - S 26 39 14 21 - - -
21/06:30am - - - - - S 32 52 17 28 - - -
21/06:00am - - - - - S 30 50 16 27 - - -
21/05:51am - - - - - S 28 50 15 27 - - -
21/05:30am - - - - - S 28 44 15 24 - - -
21/05:00am - - - - - S 24 41 13 22 - - -
21/04:30am - - - - - S 26 35 14 19 - - -
21/04:00am - - - - - S 19 35 10 19 - - -
21/03:30am - - - - - S 17 24 9 13 - - -
21/03:00am - - - - - SSW 15 22 8 12 - - -
21/02:30am - - - - - S 19 26 10 14 - - -
21/02:00am - - - - - SSW 6 11 3 6 - - -
21/01:30am - - - - - WSW 7 13 4 7 - - -
21/01:00am - - - - - SW 6 13 3 7 - - -
21/12:30am - - - - - WNW 6 7 3 4 - - -
21/12:00am - - - - - WNW 7 13 4 7 - - -
 
Date/Time
EDT
Temp
°C
App
Temp
°C
Dew
Point
°C
Rel
Hum
%
Delta-T
°C
Wind Press
QNH
hPa
Press
MSL
hPa
Rain since
9am
mm
Dir  Spd
km/h
Gust
km/h
Spd
kts
Gust
kts
20/11:30pm - - - - - WNW 2 6 1 3 - - -
20/11:00pm - - - - - ENE 9 11 5 6 - - -
20/10:30pm - - - - - ESE 13 20 7 11 - - -
20/10:00pm - - - - - ESE 13 19 7 10 - - -
20/09:30pm - - - - - SE 13 17 7 9 - - -
20/09:00pm - - - - - ESE 9 13 5 7 - - -
20/08:30pm - - - - - ENE 9 13 5 7 - - -
20/08:00pm - - - - - ESE 15 20 8 11 - - -
20/07:30pm - - - - - NE 4 7 2 4 - - -
20/07:00pm - - - - - NE 17 28 9 15 - - -
20/06:30pm - - - - - SSE 9 17 5 9 - - -
20/06:12pm - - - - - SW 24 44 13 24 - - -
20/06:00pm - - - - - W 39 57 21 31 - - -
20/05:59pm - - - - - WNW 37 57 20 31 - - -
20/05:54pm - - - - - NW 32 56 17 30 - - -
20/05:30pm - - - - - ENE 20 30 11 16 - - -
20/05:00pm - - - - - NE 13 22 7 12 - - -
20/04:30pm - - - - - E 11 24 6 13 - - -

Latest Capital City Observations: Canberra | Sydney | Melbourne | Brisbane | Adelaide | Perth | Hobart | Darwin

Other Formats:

Comma delimited format used in spreadsheet applications
http://www.bom.gov.au/fwo/IDN60901/IDN60901.94769.axf

JavaScript Object Notation format (JSON) in row-major order
http://www.bom.gov.au/fwo/IDN60901/IDN60901.94769.json